sensor_id;sensor_type;location;lat;lon;timestamp;temperature;humidity
32706;DHT22;19094;50.972;3.538;2024-02-04T00:01:18;14.20;75.10
32706;DHT22;19094;50.972;3.538;2024-02-04T00:03:43;14.20;75.10
32706;DHT22;19094;50.972;3.538;2024-02-04T00:06:09;14.20;75.00
32706;DHT22;19094;50.972;3.538;2024-02-04T00:08:36;14.20;75.00
32706;DHT22;19094;50.972;3.538;2024-02-04T00:11:02;14.20;75.20
32706;DHT22;19094;50.972;3.538;2024-02-04T00:13:30;14.20;75.10
32706;DHT22;19094;50.972;3.538;2024-02-04T00:15:56;14.20;75.20
32706;DHT22;19094;50.972;3.538;2024-02-04T00:18:24;14.20;75.10
32706;DHT22;19094;50.972;3.538;2024-02-04T00:20:50;14.20;75.10
32706;DHT22;19094;50.972;3.538;2024-02-04T00:23:15;14.10;75.20
32706;DHT22;19094;50.972;3.538;2024-02-04T00:25:41;14.10;75.20
32706;DHT22;19094;50.972;3.538;2024-02-04T00:28:07;14.10;75.20
32706;DHT22;19094;50.972;3.538;2024-02-04T00:30:33;14.20;75.30
32706;DHT22;19094;50.972;3.538;2024-02-04T00:32:59;14.20;75.30
32706;DHT22;19094;50.972;3.538;2024-02-04T00:35:28;14.20;75.10
32706;DHT22;19094;50.972;3.538;2024-02-04T00:37:54;14.20;75.60
32706;DHT22;19094;50.972;3.538;2024-02-04T00:40:20;14.10;75.40
32706;DHT22;19094;50.972;3.538;2024-02-04T00:42:45;14.10;75.50
32706;DHT22;19094;50.972;3.538;2024-02-04T00:45:11;14.10;75.80
32706;DHT22;19094;50.972;3.538;2024-02-04T00:47:37;14.10;75.70
32706;DHT22;19094;50.972;3.538;2024-02-04T00:50:03;14.10;75.80
32706;DHT22;19094;50.972;3.538;2024-02-04T00:52:29;14.10;75.70
32706;DHT22;19094;50.972;3.538;2024-02-04T00:54:54;14.10;75.80
32706;DHT22;19094;50.972;3.538;2024-02-04T00:57:20;14.10;75.80
32706;DHT22;19094;50.972;3.538;2024-02-04T00:59:46;14.10;76.00
32706;DHT22;19094;50.972;3.538;2024-02-04T01:02:12;14.00;76.20
32706;DHT22;19094;50.972;3.538;2024-02-04T01:04:37;14.00;76.20
32706;DHT22;19094;50.972;3.538;2024-02-04T01:07:03;14.10;76.10
32706;DHT22;19094;50.972;3.538;2024-02-04T01:09:29;14.10;75.90
32706;DHT22;19094;50.972;3.538;2024-02-04T01:11:54;14.10;76.10
32706;DHT22;19094;50.972;3.538;2024-02-04T01:14:20;14.00;76.20
32706;DHT22;19094;50.972;3.538;2024-02-04T01:16:46;14.10;76.00
32706;DHT22;19094;50.972;3.538;2024-02-04T01:19:11;14.00;76.20
32706;DHT22;19094;50.972;3.538;2024-02-04T01:21:37;14.10;76.00
32706;DHT22;19094;50.972;3.538;2024-02-04T01:24:03;14.10;75.80
32706;DHT22;19094;50.972;3.538;2024-02-04T01:26:28;14.10;76.00
32706;DHT22;19094;50.972;3.538;2024-02-04T01:28:54;14.10;76.00
32706;DHT22;19094;50.972;3.538;2024-02-04T01:31:19;14.10;76.00
32706;DHT22;19094;50.972;3.538;2024-02-04T01:33:45;14.00;76.10
32706;DHT22;19094;50.972;3.538;2024-02-04T01:36:11;14.10;76.20
32706;DHT22;19094;50.972;3.538;2024-02-04T01:38:36;14.00;76.10
32706;DHT22;19094;50.972;3.538;2024-02-04T01:41:02;14.10;76.20
32706;DHT22;19094;50.972;3.538;2024-02-04T01:43:28;14.10;76.20
32706;DHT22;19094;50.972;3.538;2024-02-04T01:45:55;14.00;76.30
32706;DHT22;19094;50.972;3.538;2024-02-04T01:48:21;14.00;76.40
32706;DHT22;19094;50.972;3.538;2024-02-04T01:50:48;14.00;76.40
32706;DHT22;19094;50.972;3.538;2024-02-04T01:53:15;14.00;76.20
32706;DHT22;19094;50.972;3.538;2024-02-04T01:55:43;14.00;76.10
32706;DHT22;19094;50.972;3.538;2024-02-04T01:58:09;14.00;76.10
32706;DHT22;19094;50.972;3.538;2024-02-04T02:00:35;14.00;76.00
32706;DHT22;19094;50.972;3.538;2024-02-04T02:03:01;14.10;76.10
32706;DHT22;19094;50.972;3.538;2024-02-04T02:05:29;14.00;76.20
32706;DHT22;19094;50.972;3.538;2024-02-04T02:07:54;14.00;76.20
32706;DHT22;19094;50.972;3.538;2024-02-04T02:10:21;14.00;76.20
32706;DHT22;19094;50.972;3.538;2024-02-04T02:15:38;14.10;76.30
32706;DHT22;19094;50.972;3.538;2024-02-04T02:23:43;14.10;76.30
32706;DHT22;19094;50.972;3.538;2024-02-04T02:26:15;14.10;76.10
32706;DHT22;19094;50.972;3.538;2024-02-04T02:28:40;14.10;76.10
32706;DHT22;19094;50.972;3.538;2024-02-04T02:31:06;14.10;76.20
32706;DHT22;19094;50.972;3.538;2024-02-04T02:33:32;14.10;76.10
32706;DHT22;19094;50.972;3.538;2024-02-04T02:35:59;14.10;76.10
32706;DHT22;19094;50.972;3.538;2024-02-04T02:38:37;14.10;76.10
32706;DHT22;19094;50.972;3.538;2024-02-04T02:41:08;14.10;76.20
32706;DHT22;19094;50.972;3.538;2024-02-04T02:43:35;14.10;76.20
32706;DHT22;19094;50.972;3.538;2024-02-04T02:46:05;14.10;76.40
32706;DHT22;19094;50.972;3.538;2024-02-04T02:48:32;14.10;76.20
32706;DHT22;19094;50.972;3.538;2024-02-04T02:50:58;14.10;76.30
32706;DHT22;19094;50.972;3.538;2024-02-04T02:53:23;14.10;76.30
32706;DHT22;19094;50.972;3.538;2024-02-04T02:55:49;14.00;76.60
32706;DHT22;19094;50.972;3.538;2024-02-04T02:58:15;14.00;77.40
32706;DHT22;19094;50.972;3.538;2024-02-04T03:00:40;14.00;76.70
32706;DHT22;19094;50.972;3.538;2024-02-04T03:03:06;14.00;76.60
32706;DHT22;19094;50.972;3.538;2024-02-04T03:05:32;14.00;76.70
32706;DHT22;19094;50.972;3.538;2024-02-04T03:07:58;14.00;76.70
32706;DHT22;19094;50.972;3.538;2024-02-04T03:10:24;14.00;76.70
32706;DHT22;19094;50.972;3.538;2024-02-04T03:12:49;14.00;76.90
32706;DHT22;19094;50.972;3.538;2024-02-04T03:15:15;14.00;76.80
32706;DHT22;19094;50.972;3.538;2024-02-04T03:17:42;14.00;76.70
32706;DHT22;19094;50.972;3.538;2024-02-04T03:20:09;14.00;76.60
32706;DHT22;19094;50.972;3.538;2024-02-04T03:22:35;14.10;76.50
32706;DHT22;19094;50.972;3.538;2024-02-04T03:25:01;14.10;77.10
32706;DHT22;19094;50.972;3.538;2024-02-04T03:27:26;14.00;76.60
32706;DHT22;19094;50.972;3.538;2024-02-04T03:29:52;14.10;76.50
32706;DHT22;19094;50.972;3.538;2024-02-04T03:32:17;14.10;76.50
32706;DHT22;19094;50.972;3.538;2024-02-04T03:34:43;14.00;76.60
32706;DHT22;19094;50.972;3.538;2024-02-04T03:37:09;14.00;76.60
32706;DHT22;19094;50.972;3.538;2024-02-04T03:39:35;14.00;76.60
32706;DHT22;19094;50.972;3.538;2024-02-04T03:42:01;14.00;76.70
32706;DHT22;19094;50.972;3.538;2024-02-04T03:44:26;14.00;76.70
32706;DHT22;19094;50.972;3.538;2024-02-04T03:46:52;14.00;76.80
32706;DHT22;19094;50.972;3.538;2024-02-04T03:49:18;14.00;76.80
32706;DHT22;19094;50.972;3.538;2024-02-04T03:51:43;14.00;76.60
32706;DHT22;19094;50.972;3.538;2024-02-04T03:54:09;14.00;76.70
32706;DHT22;19094;50.972;3.538;2024-02-04T03:56:35;14.00;76.60
32706;DHT22;19094;50.972;3.538;2024-02-04T03:59:01;14.00;76.60
32706;DHT22;19094;50.972;3.538;2024-02-04T04:01:26;14.00;76.70
32706;DHT22;19094;50.972;3.538;2024-02-04T04:03:52;14.00;76.60
32706;DHT22;19094;50.972;3.538;2024-02-04T04:06:18;14.00;76.50
32706;DHT22;19094;50.972;3.538;2024-02-04T04:08:43;14.00;76.30
32706;DHT22;19094;50.972;3.538;2024-02-04T04:11:10;14.00;76.50
32706;DHT22;19094;50.972;3.538;2024-02-04T04:13:37;14.00;76.50
32706;DHT22;19094;50.972;3.538;2024-02-04T04:16:04;14.00;76.50
32706;DHT22;19094;50.972;3.538;2024-02-04T04:18:30;14.00;76.50
32706;DHT22;19094;50.972;3.538;2024-02-04T04:20:56;14.00;76.50
32706;DHT22;19094;50.972;3.538;2024-02-04T04:23:21;14.00;76.40
32706;DHT22;19094;50.972;3.538;2024-02-04T04:25:47;14.00;76.30
32706;DHT22;19094;50.972;3.538;2024-02-04T04:28:13;14.00;76.30
32706;DHT22;19094;50.972;3.538;2024-02-04T04:30:38;14.00;76.50
32706;DHT22;19094;50.972;3.538;2024-02-04T04:33:04;14.00;76.40
32706;DHT22;19094;50.972;3.538;2024-02-04T04:35:29;14.00;76.20
32706;DHT22;19094;50.972;3.538;2024-02-04T04:37:55;14.00;76.20
32706;DHT22;19094;50.972;3.538;2024-02-04T04:40:21;14.00;76.10
32706;DHT22;19094;50.972;3.538;2024-02-04T04:42:46;14.00;76.20
32706;DHT22;19094;50.972;3.538;2024-02-04T04:45:12;14.00;76.30
32706;DHT22;19094;50.972;3.538;2024-02-04T04:47:39;14.00;76.10
32706;DHT22;19094;50.972;3.538;2024-02-04T04:50:05;14.00;76.10
32706;DHT22;19094;50.972;3.538;2024-02-04T04:52:31;14.00;76.20
32706;DHT22;19094;50.972;3.538;2024-02-04T04:54:57;14.00;76.20
32706;DHT22;19094;50.972;3.538;2024-02-04T04:57:23;14.00;76.90
32706;DHT22;19094;50.972;3.538;2024-02-04T04:59:48;14.00;76.30
32706;DHT22;19094;50.972;3.538;2024-02-04T05:02:14;14.00;76.10
32706;DHT22;19094;50.972;3.538;2024-02-04T05:04:43;14.00;76.00
32706;DHT22;19094;50.972;3.538;2024-02-04T05:07:10;14.10;76.00
32706;DHT22;19094;50.972;3.538;2024-02-04T05:09:36;14.10;75.90
32706;DHT22;19094;50.972;3.538;2024-02-04T05:12:02;14.10;76.00
32706;DHT22;19094;50.972;3.538;2024-02-04T05:14:28;14.10;76.10
32706;DHT22;19094;50.972;3.538;2024-02-04T05:16:54;14.10;76.00
32706;DHT22;19094;50.972;3.538;2024-02-04T05:19:19;14.10;76.00
32706;DHT22;19094;50.972;3.538;2024-02-04T05:21:45;14.10;76.00
32706;DHT22;19094;50.972;3.538;2024-02-04T05:24:11;14.10;76.10
32706;DHT22;19094;50.972;3.538;2024-02-04T05:26:36;14.00;76.10
32706;DHT22;19094;50.972;3.538;2024-02-04T05:29:02;14.00;76.10
32706;DHT22;19094;50.972;3.538;2024-02-04T05:31:28;14.10;76.10
32706;DHT22;19094;50.972;3.538;2024-02-04T05:33:53;14.00;76.00
32706;DHT22;19094;50.972;3.538;2024-02-04T05:36:19;14.00;76.20
32706;DHT22;19094;50.972;3.538;2024-02-04T05:38:45;14.10;76.10
32706;DHT22;19094;50.972;3.538;2024-02-04T05:41:11;14.00;76.10
32706;DHT22;19094;50.972;3.538;2024-02-04T05:43:37;14.00;76.00
32706;DHT22;19094;50.972;3.538;2024-02-04T05:46:02;14.10;76.00
32706;DHT22;19094;50.972;3.538;2024-02-04T05:48:28;14.10;76.10
32706;DHT22;19094;50.972;3.538;2024-02-04T05:50:53;14.10;76.00
32706;DHT22;19094;50.972;3.538;2024-02-04T05:53:19;14.10;76.10
32706;DHT22;19094;50.972;3.538;2024-02-04T05:55:46;14.10;76.20
32706;DHT22;19094;50.972;3.538;2024-02-04T05:58:12;14.10;76.20
32706;DHT22;19094;50.972;3.538;2024-02-04T06:00:39;14.10;76.00
32706;DHT22;19094;50.972;3.538;2024-02-04T06:03:05;14.10;75.90
32706;DHT22;19094;50.972;3.538;2024-02-04T06:05:31;14.10;75.90
32706;DHT22;19094;50.972;3.538;2024-02-04T06:07:57;14.10;75.70
32706;DHT22;19094;50.972;3.538;2024-02-04T06:10:22;14.10;75.60
32706;DHT22;19094;50.972;3.538;2024-02-04T06:12:48;14.10;75.80
32706;DHT22;19094;50.972;3.538;2024-02-04T06:15:14;14.10;75.80
32706;DHT22;19094;50.972;3.538;2024-02-04T06:17:41;14.10;75.90
32706;DHT22;19094;50.972;3.538;2024-02-04T06:20:07;14.10;75.70
32706;DHT22;19094;50.972;3.538;2024-02-04T06:22:36;14.10;75.60
32706;DHT22;19094;50.972;3.538;2024-02-04T06:25:03;14.10;75.50
32706;DHT22;19094;50.972;3.538;2024-02-04T06:27:29;14.10;75.70
32706;DHT22;19094;50.972;3.538;2024-02-04T06:29:55;14.10;75.70
32706;DHT22;19094;50.972;3.538;2024-02-04T06:32:21;14.10;75.80
32706;DHT22;19094;50.972;3.538;2024-02-04T06:34:47;14.10;75.70
32706;DHT22;19094;50.972;3.538;2024-02-04T06:37:12;14.10;75.70
32706;DHT22;19094;50.972;3.538;2024-02-04T06:39:38;14.10;75.80
32706;DHT22;19094;50.972;3.538;2024-02-04T06:42:04;14.10;75.70
32706;DHT22;19094;50.972;3.538;2024-02-04T06:44:30;14.10;75.60
32706;DHT22;19094;50.972;3.538;2024-02-04T06:46:56;14.10;75.50
32706;DHT22;19094;50.972;3.538;2024-02-04T06:49:21;14.10;75.60
32706;DHT22;19094;50.972;3.538;2024-02-04T06:51:47;14.10;75.50
32706;DHT22;19094;50.972;3.538;2024-02-04T06:54:13;14.10;75.60
32706;DHT22;19094;50.972;3.538;2024-02-04T06:56:39;14.10;75.60
32706;DHT22;19094;50.972;3.538;2024-02-04T06:59:05;14.10;75.50
32706;DHT22;19094;50.972;3.538;2024-02-04T07:01:32;14.10;75.50
32706;DHT22;19094;50.972;3.538;2024-02-04T07:03:57;14.10;75.60
32706;DHT22;19094;50.972;3.538;2024-02-04T07:06:23;14.10;75.40
32706;DHT22;19094;50.972;3.538;2024-02-04T07:08:48;14.10;75.30
32706;DHT22;19094;50.972;3.538;2024-02-04T07:11:14;14.10;75.30
32706;DHT22;19094;50.972;3.538;2024-02-04T07:13:41;14.10;75.30
32706;DHT22;19094;50.972;3.538;2024-02-04T07:16:06;14.10;75.40
32706;DHT22;19094;50.972;3.538;2024-02-04T07:18:32;14.10;75.30
32706;DHT22;19094;50.972;3.538;2024-02-04T07:20:58;14.10;75.40
32706;DHT22;19094;50.972;3.538;2024-02-04T07:23:23;14.10;75.40
32706;DHT22;19094;50.972;3.538;2024-02-04T07:25:49;14.10;75.40
32706;DHT22;19094;50.972;3.538;2024-02-04T07:28:15;14.10;75.40
32706;DHT22;19094;50.972;3.538;2024-02-04T07:30:40;14.10;75.30
32706;DHT22;19094;50.972;3.538;2024-02-04T07:33:06;14.10;75.40
32706;DHT22;19094;50.972;3.538;2024-02-04T07:35:32;14.10;75.40
32706;DHT22;19094;50.972;3.538;2024-02-04T07:37:57;14.10;75.50
32706;DHT22;19094;50.972;3.538;2024-02-04T07:40:23;14.10;75.30
32706;DHT22;19094;50.972;3.538;2024-02-04T07:42:49;14.10;75.30
32706;DHT22;19094;50.972;3.538;2024-02-04T07:45:14;14.20;75.10
32706;DHT22;19094;50.972;3.538;2024-02-04T07:47:40;14.10;75.30
32706;DHT22;19094;50.972;3.538;2024-02-04T07:50:07;14.10;75.30
32706;DHT22;19094;50.972;3.538;2024-02-04T07:52:33;14.10;75.30
32706;DHT22;19094;50.972;3.538;2024-02-04T07:54:58;14.10;75.50
32706;DHT22;19094;50.972;3.538;2024-02-04T07:57:24;14.10;75.40
32706;DHT22;19094;50.972;3.538;2024-02-04T07:59:50;14.10;75.40
32706;DHT22;19094;50.972;3.538;2024-02-04T08:02:15;14.00;75.40
32706;DHT22;19094;50.972;3.538;2024-02-04T08:04:41;14.00;75.40
32706;DHT22;19094;50.972;3.538;2024-02-04T08:07:07;14.00;75.50
32706;DHT22;19094;50.972;3.538;2024-02-04T08:09:32;14.00;75.50
32706;DHT22;19094;50.972;3.538;2024-02-04T08:11:58;14.10;75.60
32706;DHT22;19094;50.972;3.538;2024-02-04T08:14:24;14.10;75.50
32706;DHT22;19094;50.972;3.538;2024-02-04T08:16:49;14.10;75.30
32706;DHT22;19094;50.972;3.538;2024-02-04T08:19:16;14.10;75.30
32706;DHT22;19094;50.972;3.538;2024-02-04T08:21:41;14.10;75.50
32706;DHT22;19094;50.972;3.538;2024-02-04T08:24:07;14.10;75.40
32706;DHT22;19094;50.972;3.538;2024-02-04T08:26:33;14.10;75.40
32706;DHT22;19094;50.972;3.538;2024-02-04T08:28:59;14.10;75.50
32706;DHT22;19094;50.972;3.538;2024-02-04T08:31:25;14.10;75.40
32706;DHT22;19094;50.972;3.538;2024-02-04T08:33:50;14.10;75.40
32706;DHT22;19094;50.972;3.538;2024-02-04T08:36:18;14.10;75.50
32706;DHT22;19094;50.972;3.538;2024-02-04T08:38:44;14.10;75.50
32706;DHT22;19094;50.972;3.538;2024-02-04T08:41:09;14.10;75.70
32706;DHT22;19094;50.972;3.538;2024-02-04T08:43:35;14.10;75.50
32706;DHT22;19094;50.972;3.538;2024-02-04T08:46:01;14.10;75.50
32706;DHT22;19094;50.972;3.538;2024-02-04T08:48:26;14.10;75.40
32706;DHT22;19094;50.972;3.538;2024-02-04T08:50:52;14.20;75.10
32706;DHT22;19094;50.972;3.538;2024-02-04T08:53:20;14.20;75.10
32706;DHT22;19094;50.972;3.538;2024-02-04T08:55:46;14.20;75.20
32706;DHT22;19094;50.972;3.538;2024-02-04T08:58:12;14.10;75.30
32706;DHT22;19094;50.972;3.538;2024-02-04T09:00:37;14.10;75.20
32706;DHT22;19094;50.972;3.538;2024-02-04T09:03:03;14.10;75.20
32706;DHT22;19094;50.972;3.538;2024-02-04T09:05:29;14.10;75.40
32706;DHT22;19094;50.972;3.538;2024-02-04T09:07:54;14.10;75.30
32706;DHT22;19094;50.972;3.538;2024-02-04T09:10:21;14.10;75.30
32706;DHT22;19094;50.972;3.538;2024-02-04T09:12:47;14.10;75.30
32706;DHT22;19094;50.972;3.538;2024-02-04T09:15:13;14.10;75.30
32706;DHT22;19094;50.972;3.538;2024-02-04T09:17:38;14.10;75.30
32706;DHT22;19094;50.972;3.538;2024-02-04T09:20:05;14.10;75.30
32706;DHT22;19094;50.972;3.538;2024-02-04T09:22:31;14.20;76.00
32706;DHT22;19094;50.972;3.538;2024-02-04T09:24:56;14.20;75.20
32706;DHT22;19094;50.972;3.538;2024-02-04T09:27:22;14.10;75.20
32706;DHT22;19094;50.972;3.538;2024-02-04T09:29:48;14.10;75.30
32706;DHT22;19094;50.972;3.538;2024-02-04T09:32:13;14.10;75.30
32706;DHT22;19094;50.972;3.538;2024-02-04T09:34:39;14.10;75.40
32706;DHT22;19094;50.972;3.538;2024-02-04T09:37:05;14.10;75.30
32706;DHT22;19094;50.972;3.538;2024-02-04T09:39:30;14.10;75.30
32706;DHT22;19094;50.972;3.538;2024-02-04T09:41:56;14.20;75.30
32706;DHT22;19094;50.972;3.538;2024-02-04T09:44:23;14.20;75.10
32706;DHT22;19094;50.972;3.538;2024-02-04T09:46:49;14.20;75.00
32706;DHT22;19094;50.972;3.538;2024-02-04T09:49:16;14.20;75.00
32706;DHT22;19094;50.972;3.538;2024-02-04T09:51:42;14.20;75.00
32706;DHT22;19094;50.972;3.538;2024-02-04T09:54:10;14.20;75.10
32706;DHT22;19094;50.972;3.538;2024-02-04T09:56:37;14.20;74.90
32706;DHT22;19094;50.972;3.538;2024-02-04T09:59:04;14.20;74.80
32706;DHT22;19094;50.972;3.538;2024-02-04T10:01:31;14.30;75.00
32706;DHT22;19094;50.972;3.538;2024-02-04T10:03:57;14.30;74.80
32706;DHT22;19094;50.972;3.538;2024-02-04T10:06:24;14.30;75.00
32706;DHT22;19094;50.972;3.538;2024-02-04T10:08:50;14.20;75.10
32706;DHT22;19094;50.972;3.538;2024-02-04T10:11:16;14.20;75.10
32706;DHT22;19094;50.972;3.538;2024-02-04T10:13:48;14.30;75.10
32706;DHT22;19094;50.972;3.538;2024-02-04T10:16:17;14.30;74.90
32706;DHT22;19094;50.972;3.538;2024-02-04T10:18:48;14.30;75.00
32706;DHT22;19094;50.972;3.538;2024-02-04T10:21:21;14.40;75.60
32706;DHT22;19094;50.972;3.538;2024-02-04T10:23:50;14.30;75.00
32706;DHT22;19094;50.972;3.538;2024-02-04T10:26:17;14.40;74.80
32706;DHT22;19094;50.972;3.538;2024-02-04T10:28:45;14.30;74.80
32706;DHT22;19094;50.972;3.538;2024-02-04T10:31:12;14.30;75.00
32706;DHT22;19094;50.972;3.538;2024-02-04T10:33:38;14.30;75.20
32706;DHT22;19094;50.972;3.538;2024-02-04T10:36:04;14.30;75.00
32706;DHT22;19094;50.972;3.538;2024-02-04T10:38:31;14.30;75.10
32706;DHT22;19094;50.972;3.538;2024-02-04T10:40:59;14.30;75.20
32706;DHT22;19094;50.972;3.538;2024-02-04T10:43:31;14.30;75.20
32706;DHT22;19094;50.972;3.538;2024-02-04T10:45:57;14.30;75.10
32706;DHT22;19094;50.972;3.538;2024-02-04T10:48:27;14.30;75.00
32706;DHT22;19094;50.972;3.538;2024-02-04T10:50:55;14.30;75.00
32706;DHT22;19094;50.972;3.538;2024-02-04T10:53:25;14.30;75.00
32706;DHT22;19094;50.972;3.538;2024-02-04T10:55:52;14.30;75.10
32706;DHT22;19094;50.972;3.538;2024-02-04T10:58:21;14.30;75.10
32706;DHT22;19094;50.972;3.538;2024-02-04T11:00:48;14.30;75.00
32706;DHT22;19094;50.972;3.538;2024-02-04T11:03:15;14.30;75.60
32706;DHT22;19094;50.972;3.538;2024-02-04T11:05:43;14.30;75.00
32706;DHT22;19094;50.972;3.538;2024-02-04T11:08:10;14.30;75.00
32706;DHT22;19094;50.972;3.538;2024-02-04T11:10:39;14.40;75.00
32706;DHT22;19094;50.972;3.538;2024-02-04T11:13:06;14.40;74.90
32706;DHT22;19094;50.972;3.538;2024-02-04T11:15:36;14.30;74.90
32706;DHT22;19094;50.972;3.538;2024-02-04T11:18:30;14.30;75.00
32706;DHT22;19094;50.972;3.538;2024-02-04T11:21:23;14.30;75.10
32706;DHT22;19094;50.972;3.538;2024-02-04T11:26:33;14.30;75.00
32706;DHT22;19094;50.972;3.538;2024-02-04T11:29:00;14.30;75.10
32706;DHT22;19094;50.972;3.538;2024-02-04T11:31:28;14.30;75.10
32706;DHT22;19094;50.972;3.538;2024-02-04T11:33:54;14.30;75.00
32706;DHT22;19094;50.972;3.538;2024-02-04T11:36:24;14.40;75.10
32706;DHT22;19094;50.972;3.538;2024-02-04T11:38:51;14.30;75.00
32706;DHT22;19094;50.972;3.538;2024-02-04T11:41:23;14.30;75.20
32706;DHT22;19094;50.972;3.538;2024-02-04T11:43:53;14.30;75.30
32706;DHT22;19094;50.972;3.538;2024-02-04T11:46:19;14.30;75.30
32706;DHT22;19094;50.972;3.538;2024-02-04T11:48:52;14.60;77.10
32706;DHT22;19094;50.972;3.538;2024-02-04T11:51:24;14.50;76.40
32706;DHT22;19094;50.972;3.538;2024-02-04T11:53:51;14.40;76.60
32706;DHT22;19094;50.972;3.538;2024-02-04T11:56:18;14.40;76.70
32706;DHT22;19094;50.972;3.538;2024-02-04T11:58:44;14.40;76.70
32706;DHT22;19094;50.972;3.538;2024-02-04T12:01:10;14.30;76.60
32706;DHT22;19094;50.972;3.538;2024-02-04T12:03:36;14.30;76.50
32706;DHT22;19094;50.972;3.538;2024-02-04T12:06:03;14.40;76.50
32706;DHT22;19094;50.972;3.538;2024-02-04T12:08:31;14.30;76.60
32706;DHT22;19094;50.972;3.538;2024-02-04T12:10:58;14.40;76.70
32706;DHT22;19094;50.972;3.538;2024-02-04T12:13:24;14.30;78.00
32706;DHT22;19094;50.972;3.538;2024-02-04T12:15:50;14.40;78.20
32706;DHT22;19094;50.972;3.538;2024-02-04T12:18:16;14.30;77.70
32706;DHT22;19094;50.972;3.538;2024-02-04T12:20:48;14.30;77.40
32706;DHT22;19094;50.972;3.538;2024-02-04T12:23:18;14.40;77.20
32706;DHT22;19094;50.972;3.538;2024-02-04T12:25:44;14.40;77.70
32706;DHT22;19094;50.972;3.538;2024-02-04T12:28:10;14.40;77.10
32706;DHT22;19094;50.972;3.538;2024-02-04T12:30:36;14.50;76.90
32706;DHT22;19094;50.972;3.538;2024-02-04T12:33:03;14.40;77.10
32706;DHT22;19094;50.972;3.538;2024-02-04T12:35:32;14.50;77.20
32706;DHT22;19094;50.972;3.538;2024-02-04T12:37:59;14.40;77.30
32706;DHT22;19094;50.972;3.538;2024-02-04T12:40:29;14.40;77.60
32706;DHT22;19094;50.972;3.538;2024-02-04T12:43:02;14.50;77.30
32706;DHT22;19094;50.972;3.538;2024-02-04T12:45:28;14.50;77.30
32706;DHT22;19094;50.972;3.538;2024-02-04T12:47:58;14.40;77.60
32706;DHT22;19094;50.972;3.538;2024-02-04T12:50:25;14.30;77.70
32706;DHT22;19094;50.972;3.538;2024-02-04T12:53:07;14.40;77.40
32706;DHT22;19094;50.972;3.538;2024-02-04T12:55:36;14.40;77.40
32706;DHT22;19094;50.972;3.538;2024-02-04T12:58:07;14.40;77.30
32706;DHT22;19094;50.972;3.538;2024-02-04T13:00:37;14.50;77.30
32706;DHT22;19094;50.972;3.538;2024-02-04T13:03:04;14.40;77.40
32706;DHT22;19094;50.972;3.538;2024-02-04T13:05:30;14.50;77.10
32706;DHT22;19094;50.972;3.538;2024-02-04T13:08:00;14.50;77.40
32706;DHT22;19094;50.972;3.538;2024-02-04T13:10:29;14.50;77.00
32706;DHT22;19094;50.972;3.538;2024-02-04T13:13:04;14.50;77.00
32706;DHT22;19094;50.972;3.538;2024-02-04T13:15:33;14.60;77.10
32706;DHT22;19094;50.972;3.538;2024-02-04T13:17:59;14.50;77.10
32706;DHT22;19094;50.972;3.538;2024-02-04T13:20:25;14.60;77.00
32706;DHT22;19094;50.972;3.538;2024-02-04T13:22:52;14.60;77.20
32706;DHT22;19094;50.972;3.538;2024-02-04T13:25:21;14.50;77.10
32706;DHT22;19094;50.972;3.538;2024-02-04T13:27:49;14.60;77.10
32706;DHT22;19094;50.972;3.538;2024-02-04T13:30:16;14.60;77.00
32706;DHT22;19094;50.972;3.538;2024-02-04T13:32:42;14.60;76.90
32706;DHT22;19094;50.972;3.538;2024-02-04T13:35:09;14.60;77.20
32706;DHT22;19094;50.972;3.538;2024-02-04T13:37:43;14.50;77.20
32706;DHT22;19094;50.972;3.538;2024-02-04T13:40:16;14.50;77.20
32706;DHT22;19094;50.972;3.538;2024-02-04T13:42:43;14.50;77.70
32706;DHT22;19094;50.972;3.538;2024-02-04T13:45:09;14.50;78.30
32706;DHT22;19094;50.972;3.538;2024-02-04T13:47:35;14.50;78.00
32706;DHT22;19094;50.972;3.538;2024-02-04T13:50:01;14.60;78.90
32706;DHT22;19094;50.972;3.538;2024-02-04T13:52:28;14.90;79.40
32706;DHT22;19094;50.972;3.538;2024-02-04T13:54:54;14.90;78.10
32706;DHT22;19094;50.972;3.538;2024-02-04T13:57:19;14.70;78.10
32706;DHT22;19094;50.972;3.538;2024-02-04T13:59:45;14.70;77.70
32706;DHT22;19094;50.972;3.538;2024-02-04T14:02:11;14.60;77.70
32706;DHT22;19094;50.972;3.538;2024-02-04T14:04:36;14.60;77.30
32706;DHT22;19094;50.972;3.538;2024-02-04T14:07:02;14.70;77.20
32706;DHT22;19094;50.972;3.538;2024-02-04T14:09:28;14.70;76.90
32706;DHT22;19094;50.972;3.538;2024-02-04T14:11:54;14.70;76.80
32706;DHT22;19094;50.972;3.538;2024-02-04T14:14:23;14.70;76.70
32706;DHT22;19094;50.972;3.538;2024-02-04T14:16:49;14.70;76.80
32706;DHT22;19094;50.972;3.538;2024-02-04T14:19:15;14.70;76.60
32706;DHT22;19094;50.972;3.538;2024-02-04T14:21:44;14.70;76.70
32706;DHT22;19094;50.972;3.538;2024-02-04T14:24:10;14.70;76.50
32706;DHT22;19094;50.972;3.538;2024-02-04T14:26:36;14.70;76.10
32706;DHT22;19094;50.972;3.538;2024-02-04T14:29:01;14.70;76.10
32706;DHT22;19094;50.972;3.538;2024-02-04T14:31:27;14.60;76.20
32706;DHT22;19094;50.972;3.538;2024-02-04T14:33:53;14.70;76.10
32706;DHT22;19094;50.972;3.538;2024-02-04T14:36:18;14.70;75.70
32706;DHT22;19094;50.972;3.538;2024-02-04T14:38:45;14.70;75.90
32706;DHT22;19094;50.972;3.538;2024-02-04T14:41:10;14.70;75.60
32706;DHT22;19094;50.972;3.538;2024-02-04T14:43:37;14.80;75.60
32706;DHT22;19094;50.972;3.538;2024-02-04T14:46:03;14.80;75.40
32706;DHT22;19094;50.972;3.538;2024-02-04T14:48:28;14.70;75.40
32706;DHT22;19094;50.972;3.538;2024-02-04T14:50:55;14.70;76.40
32706;DHT22;19094;50.972;3.538;2024-02-04T14:53:22;14.70;75.60
32706;DHT22;19094;50.972;3.538;2024-02-04T14:55:48;14.80;75.20
32706;DHT22;19094;50.972;3.538;2024-02-04T14:58:14;14.90;74.80
32706;DHT22;19094;50.972;3.538;2024-02-04T15:00:39;14.80;74.80
32706;DHT22;19094;50.972;3.538;2024-02-04T15:03:05;14.80;74.90
32706;DHT22;19094;50.972;3.538;2024-02-04T15:05:31;14.70;75.10
32706;DHT22;19094;50.972;3.538;2024-02-04T15:07:56;14.70;75.20
32706;DHT22;19094;50.972;3.538;2024-02-04T15:10:22;14.70;75.30
32706;DHT22;19094;50.972;3.538;2024-02-04T15:12:49;14.80;75.10
32706;DHT22;19094;50.972;3.538;2024-02-04T15:15:17;14.70;75.00
32706;DHT22;19094;50.972;3.538;2024-02-04T15:17:43;14.70;75.00
32706;DHT22;19094;50.972;3.538;2024-02-04T15:20:09;14.70;74.80
32706;DHT22;19094;50.972;3.538;2024-02-04T15:22:37;14.70;74.80
32706;DHT22;19094;50.972;3.538;2024-02-04T15:25:05;14.70;75.00
32706;DHT22;19094;50.972;3.538;2024-02-04T15:27:31;14.70;75.00
32706;DHT22;19094;50.972;3.538;2024-02-04T15:29:57;14.70;74.80
32706;DHT22;19094;50.972;3.538;2024-02-04T15:32:23;14.70;74.80
32706;DHT22;19094;50.972;3.538;2024-02-04T15:34:49;14.70;74.90
32706;DHT22;19094;50.972;3.538;2024-02-04T15:37:16;14.80;74.50